Terminal Aerodrome Forecast
Issued by NWS Shreveport, LA

Home | Current Version | Previous Version | Text Only | Print | Product List | Glossary On
Versions: 1 2 3 4 5 6 7 8 9 10 11 12 13 14 15
000
FTUS44 KSHV 220500 RRA
TAFELD
TAF
KELD 220541Z 2206/2306 14005KT P6SM SCT012 SCT250
      TEMPO 2207/2209 BKN007
     FM220900 16005KT 5SM BR OVC007
     FM221600 17007KT 6SM BR OVC007
     FM221800 18007KT P6SM OVC008
     FM222000 19007KT P6SM OVC013
     FM230200 25005KT P6SM OVC017=

USA.gov is the U.S. government's official web portal to all federal, state and local government web resources and services.